Time;durP1;ratioP1;P1;durP2;ratioP2;P2;SDS_P1;SDS_P2;PMS_P1;PMS_P2;Temp;Humidity;BMP_temperature;BMP_pressure;BME280_temperature;BME280_humidity;BME280_pressure;Samples;Min_cycle;Max_cycle;Signal;HPM_P1;HPM_P2
2024/01/04 00:00:25;;;;;;;11.07;2.90;;;19.50;64.50;;;;;;5023776;28;20040;-60
2024/01/04 00:02:51;;;;;;;17.65;3.00;;;19.50;65.70;;;;;;5023710;28;20194;-56
2024/01/04 00:05:17;;;;;;;8.85;2.70;;;19.50;65.30;;;;;;5003399;28;20029;-54
2024/01/04 00:07:44;;;;;;;6.18;2.58;;;19.50;65.00;;;;;;5021062;28;20033;-59
2024/01/04 00:10:10;;;;;;;17.80;2.90;;;19.50;64.70;;;;;;5019737;28;20025;-58
2024/01/04 00:12:36;;;;;;;14.00;2.97;;;19.50;64.60;;;;;;5008584;28;20040;-56
2024/01/04 00:15:05;;;;;;;14.00;2.53;;;19.50;64.90;;;;;;5030473;28;20025;-59
2024/01/04 00:17:31;;;;;;;11.98;2.63;;;19.60;65.20;;;;;;5032158;28;20040;-57
2024/01/04 00:19:57;;;;;;;7.40;2.03;;;19.60;64.80;;;;;;5031969;28;20029;-56
2024/01/04 00:22:23;;;;;;;13.40;2.75;;;19.60;64.70;;;;;;5030086;28;20400;-55
2024/01/04 00:24:50;;;;;;;13.57;2.55;;;19.60;64.60;;;;;;5030685;28;20044;-56
2024/01/04 00:27:15;;;;;;;8.02;2.55;;;19.50;64.90;;;;;;5028733;28;20040;-56
2024/01/04 00:29:44;;;;;;;9.77;2.70;;;19.50;64.70;;;;;;5031913;28;20030;-56
2024/01/04 00:32:10;;;;;;;16.73;2.38;;;19.50;64.50;;;;;;5030494;28;20392;-59
2024/01/04 00:34:36;;;;;;;7.15;3.10;;;19.50;64.60;;;;;;5031845;28;20042;-56
2024/01/04 00:37:04;;;;;;;19.42;2.60;;;19.50;64.70;;;;;;5032685;28;20524;-57
2024/01/04 00:39:30;;;;;;;12.63;2.55;;;19.40;64.80;;;;;;5014096;28;20033;-54
2024/01/04 00:41:57;;;;;;;5.95;2.20;;;19.40;64.70;;;;;;5013526;28;20072;-59
2024/01/04 00:44:24;;;;;;;7.75;2.38;;;19.40;64.50;;;;;;5014294;28;20438;-57
2024/01/04 00:46:50;;;;;;;10.65;2.67;;;19.40;64.80;;;;;;5030362;28;20128;-54
2024/01/04 00:49:16;;;;;;;6.82;2.30;;;19.40;65.50;;;;;;5030643;28;20053;-59
2024/01/04 00:51:42;;;;;;;13.73;3.20;;;19.40;64.40;;;;;;5031804;28;20060;-56
2024/01/04 00:54:08;;;;;;;10.32;2.45;;;19.40;64.80;;;;;;5031482;28;20017;-53
2024/01/04 00:56:35;;;;;;;7.43;2.20;;;19.40;64.50;;;;;;5032115;28;20189;-54
2024/01/04 00:59:01;;;;;;;5.38;2.10;;;19.40;64.30;;;;;;5031473;28;20175;-53
2024/01/04 01:01:27;;;;;;;4.47;2.15;;;19.40;64.50;;;;;;5013444;28;20433;-53
2024/01/04 01:03:53;;;;;;;5.97;2.30;;;19.30;64.90;;;;;;5031375;28;20025;-54
2024/01/04 01:06:19;;;;;;;11.48;2.60;;;19.40;64.20;;;;;;5030243;28;20040;-56
2024/01/04 01:08:45;;;;;;;6.53;2.20;;;19.30;64.40;;;;;;5014545;28;20397;-57
2024/01/04 01:11:11;;;;;;;9.55;2.20;;;19.40;64.30;;;;;;5030501;28;20083;-58
2024/01/04 01:13:37;;;;;;;7.88;2.10;;;19.40;64.30;;;;;;5014562;28;20057;-54
2024/01/04 01:16:03;;;;;;;5.07;1.85;;;19.30;64.40;;;;;;5013302;28;20456;-56
2024/01/04 01:18:30;;;;;;;7.07;2.30;;;19.40;64.30;;;;;;5030145;28;20447;-53
2024/01/04 01:20:55;;;;;;;6.88;2.58;;;19.40;64.50;;;;;;5030164;28;20033;-57
2024/01/04 01:23:21;;;;;;;4.13;1.90;;;19.30;64.30;;;;;;5014457;28;20026;-55
2024/01/04 01:25:47;;;;;;;4.80;2.03;;;19.30;64.30;;;;;;5031620;28;20112;-54
2024/01/04 01:28:13;;;;;;;4.07;2.20;;;19.40;64.10;;;;;;5031504;28;20117;-57
2024/01/04 01:30:39;;;;;;;3.47;1.90;;;19.40;63.80;;;;;;5031825;28;20062;-52
2024/01/04 01:33:05;;;;;;;6.45;2.10;;;19.40;64.40;;;;;;5031769;28;20080;-54
2024/01/04 01:35:31;;;;;;;6.95;1.80;;;19.40;63.80;;;;;;5030852;28;20021;-58
2024/01/04 01:37:57;;;;;;;7.63;1.92;;;19.40;63.70;;;;;;5031723;28;20036;-56
2024/01/04 01:40:23;;;;;;;5.50;2.20;;;19.40;63.70;;;;;;5030740;28;20029;-58
2024/01/04 01:42:49;;;;;;;4.25;1.73;;;19.30;63.40;;;;;;5030551;28;20580;-57
2024/01/04 01:45:16;;;;;;;7.15;2.28;;;19.40;64.00;;;;;;5031206;28;20029;-58
2024/01/04 01:47:42;;;;;;;6.65;2.00;;;19.30;63.50;;;;;;5030431;28;20123;-59
2024/01/04 01:50:09;;;;;;;5.90;1.83;;;19.40;63.70;;;;;;5030716;28;20033;-57
2024/01/04 01:52:36;;;;;;;7.57;2.10;;;19.30;63.40;;;;;;5029025;28;20074;-57
2024/01/04 01:55:03;;;;;;;5.13;1.95;;;19.30;63.60;;;;;;5029961;28;20144;-54
2024/01/04 01:57:31;;;;;;;4.88;1.95;;;19.30;63.70;;;;;;5031142;28;20413;-56
2024/01/04 01:59:57;;;;;;;4.25;1.75;;;19.30;63.60;;;;;;5012476;28;20033;-56
2024/01/04 02:02:24;;;;;;;3.10;1.85;;;19.30;63.40;;;;;;5013244;28;20030;-54
2024/01/04 02:04:49;;;;;;;5.43;1.90;;;19.30;63.50;;;;;;5012466;28;20079;-53
2024/01/04 02:07:15;;;;;;;5.45;1.85;;;19.30;63.30;;;;;;5030607;28;20101;-54
2024/01/04 02:09:41;;;;;;;5.45;1.80;;;19.30;63.20;;;;;;5029851;28;20108;-55
2024/01/04 02:12:10;;;;;;;7.00;1.77;;;19.30;63.30;;;;;;5030194;28;20020;-59
2024/01/04 02:14:36;;;;;;;8.55;2.28;;;19.30;63.40;;;;;;5013235;28;20481;-60
2024/01/04 02:17:02;;;;;;;3.67;1.73;;;19.30;63.40;;;;;;5031096;28;20029;-59
2024/01/04 02:19:30;;;;;;;4.45;1.70;;;19.30;63.30;;;;;;5013042;28;20587;-59
2024/01/04 02:21:55;;;;;;;3.63;1.73;;;19.30;63.40;;;;;;5012790;28;20036;-60
2024/01/04 02:24:21;;;;;;;5.30;1.85;;;19.30;63.40;;;;;;5029412;28;20022;-60
2024/01/04 02:26:47;;;;;;;8.93;2.17;;;19.30;63.40;;;;;;5029994;28;20401;-58
2024/01/04 02:29:13;;;;;;;3.75;1.90;;;19.30;63.40;;;;;;5030259;28;20021;-60
2024/01/04 02:31:39;;;;;;;4.97;1.90;;;19.30;63.60;;;;;;5011688;28;20080;-59
2024/01/04 02:34:05;;;;;;;5.88;2.00;;;19.30;63.40;;;;;;5030349;28;20448;-57
2024/01/04 02:36:32;;;;;;;4.45;1.92;;;19.30;63.50;;;;;;5030156;28;20018;-57
2024/01/04 02:38:58;;;;;;;2.92;1.60;;;19.30;63.50;;;;;;5030354;28;20031;-57
2024/01/04 02:41:25;;;;;;;5.40;1.77;;;19.30;63.40;;;;;;5030327;28;20064;-54
2024/01/04 02:43:51;;;;;;;5.47;2.05;;;19.30;63.30;;;;;;5027898;28;20057;-54
2024/01/04 02:46:17;;;;;;;4.05;2.13;;;19.40;63.50;;;;;;5030514;28;20060;-57
2024/01/04 02:48:42;;;;;;;3.92;1.70;;;19.30;63.40;;;;;;5029219;28;20041;-54
2024/01/04 02:51:08;;;;;;;9.57;2.03;;;19.30;63.40;;;;;;5030072;28;20018;-54
2024/01/04 02:53:35;;;;;;;2.85;1.70;;;19.30;63.30;;;;;;5012581;28;20091;-53
2024/01/04 02:56:02;;;;;;;5.25;1.67;;;19.30;63.40;;;;;;5029580;28;20052;-57
2024/01/04 02:58:28;;;;;;;3.92;1.40;;;19.30;63.40;;;;;;5012433;28;20077;-53
2024/01/04 03:00:54;;;;;;;8.10;1.90;;;19.40;63.40;;;;;;5029437;28;20043;-54
2024/01/04 03:03:20;;;;;;;3.88;1.73;;;19.40;63.50;;;;;;5030185;28;20060;-53
2024/01/04 03:05:46;;;;;;;3.50;1.50;;;19.30;63.50;;;;;;5029855;28;20033;-54
2024/01/04 03:08:11;;;;;;;4.15;1.30;;;19.30;63.40;;;;;;5030060;28;20033;-59
2024/01/04 03:10:37;;;;;;;3.33;1.50;;;19.30;63.40;;;;;;5030862;28;20028;-57
2024/01/04 03:13:03;;;;;;;3.72;1.55;;;19.30;63.60;;;;;;5030447;28;20516;-54
2024/01/04 03:15:30;;;;;;;5.47;1.90;;;19.30;63.70;;;;;;5031103;28;20052;-54
2024/01/04 03:17:56;;;;;;;6.45;1.60;;;19.40;63.70;;;;;;5034120;28;20026;-56
2024/01/04 03:20:22;;;;;;;5.55;1.98;;;19.30;63.70;;;;;;5033114;28;20029;-59
2024/01/04 03:22:48;;;;;;;3.50;1.70;;;19.30;63.70;;;;;;5033239;28;20018;-59
2024/01/04 03:25:14;;;;;;;5.60;1.35;;;19.30;63.70;;;;;;5032650;28;20017;-58
2024/01/04 03:27:40;;;;;;;4.32;1.60;;;19.30;63.70;;;;;;5033360;28;20034;-59
2024/01/04 03:30:06;;;;;;;5.78;1.60;;;19.30;63.70;;;;;;5033227;28;20025;-58
2024/01/04 03:32:32;;;;;;;4.97;1.70;;;19.30;63.90;;;;;;5033413;28;20026;-58
2024/01/04 03:34:57;;;;;;;4.20;1.80;;;19.30;63.70;;;;;;5032827;28;20032;-56
2024/01/04 03:37:23;;;;;;;5.65;1.58;;;19.30;63.80;;;;;;5033170;28;20022;-57
2024/01/04 03:39:49;;;;;;;5.15;1.48;;;19.30;63.80;;;;;;5015660;28;20036;-59
2024/01/04 03:42:15;;;;;;;3.15;1.25;;;19.30;63.70;;;;;;5033623;28;20029;-59
2024/01/04 03:44:42;;;;;;;4.95;1.73;;;19.30;64.20;;;;;;5030877;28;20041;-58
2024/01/04 03:47:08;;;;;;;4.95;1.65;;;19.30;63.80;;;;;;5031904;28;20390;-58
2024/01/04 03:49:34;;;;;;;3.50;1.60;;;19.30;63.50;;;;;;5031995;28;20048;-58
2024/01/04 03:52:01;;;;;;;2.45;1.67;;;19.30;63.70;;;;;;5031168;28;20021;-59
2024/01/04 03:54:27;;;;;;;3.50;1.60;;;19.30;63.70;;;;;;5030984;28;20104;-59
2024/01/04 03:56:53;;;;;;;1.73;1.25;;;19.30;63.60;;;;;;5032290;28;20112;-54
2024/01/04 03:59:19;;;;;;;2.63;1.48;;;19.30;63.60;;;;;;5032891;28;20476;-56
2024/01/04 04:01:45;;;;;;;2.38;1.20;;;19.20;63.50;;;;;;5032857;28;20034;-59
2024/01/04 04:04:12;;;;;;;4.07;1.58;;;19.30;63.40;;;;;;5031708;28;20030;-59
2024/01/04 04:06:39;;;;;;;4.28;1.60;;;19.30;63.40;;;;;;5029886;28;20030;-54
2024/01/04 04:09:06;;;;;;;3.63;1.60;;;19.30;63.40;;;;;;5032667;28;20116;-58
2024/01/04 04:11:33;;;;;;;3.13;1.40;;;19.30;63.30;;;;;;5029889;28;20064;-55
2024/01/04 04:13:59;;;;;;;3.15;1.45;;;19.30;63.30;;;;;;5032142;28;20029;-58
2024/01/04 04:24:20;;;;;;;4.68;1.40;;;19.30;63.30;;;;;;5030096;28;20036;-59
2024/01/04 04:26:46;;;;;;;5.60;1.40;;;19.30;63.10;;;;;;5033009;28;20022;-57
2024/01/04 04:29:12;;;;;;;3.67;1.33;;;19.30;63.20;;;;;;5031092;28;20026;-56
2024/01/04 04:31:38;;;;;;;2.28;1.50;;;19.30;63.10;;;;;;5031597;28;20029;-57
2024/01/04 04:34:03;;;;;;;6.38;1.40;;;19.30;63.20;;;;;;5030334;28;20022;-58
2024/01/04 04:36:29;;;;;;;2.58;1.40;;;19.30;63.20;;;;;;5031263;28;20397;-54
2024/01/04 04:38:55;;;;;;;3.90;1.38;;;19.30;63.20;;;;;;5031875;28;20465;-56
2024/01/04 04:41:21;;;;;;;5.55;1.23;;;19.30;63.20;;;;;;5031839;28;20029;-57
2024/01/04 04:43:46;;;;;;;3.10;1.50;;;19.30;63.20;;;;;;5032083;28;20315;-58
2024/01/04 04:46:13;;;;;;;6.75;1.50;;;19.30;63.30;;;;;;5032115;28;20021;-57
2024/01/04 04:48:39;;;;;;;4.03;1.15;;;19.30;63.40;;;;;;5031970;28;20030;-58
2024/01/04 04:51:05;;;;;;;3.13;1.25;;;19.30;63.30;;;;;;5031085;28;20033;-56
2024/01/04 04:53:31;;;;;;;3.47;1.40;;;19.30;63.30;;;;;;5031708;28;20025;-57
2024/01/04 04:55:56;;;;;;;2.95;1.40;;;19.30;63.10;;;;;;5031624;28;20029;-57
2024/01/04 04:58:22;;;;;;;4.13;1.20;;;19.30;63.70;;;;;;5032674;28;20024;-54
2024/01/04 05:00:48;;;;;;;5.10;1.33;;;19.30;63.10;;;;;;5030756;28;20053;-57
2024/01/04 05:03:13;;;;;;;7.32;1.50;;;19.30;63.50;;;;;;5032186;28;20036;-58
2024/01/04 05:05:39;;;;;;;5.68;1.33;;;19.30;63.20;;;;;;5030295;28;20029;-57
2024/01/04 05:08:05;;;;;;;7.32;1.35;;;19.30;63.60;;;;;;5031207;28;20459;-58
2024/01/04 05:10:31;;;;;;;2.25;1.40;;;19.30;63.50;;;;;;5030904;28;20497;-57
2024/01/04 05:13:00;;;;;;;2.78;1.30;;;19.40;63.40;;;;;;5032041;28;20039;-58
2024/01/04 05:15:26;;;;;;;3.33;1.52;;;19.40;63.40;;;;;;5030965;28;20021;-58
2024/01/04 05:17:53;;;;;;;2.75;1.25;;;19.40;63.50;;;;;;5030920;28;20028;-58
2024/01/04 05:20:20;;;;;;;2.67;1.38;;;19.30;63.30;;;;;;5030969;28;20401;-54
2024/01/04 05:22:45;;;;;;;2.63;1.30;;;19.40;63.40;;;;;;5031266;28;20062;-58
2024/01/04 05:25:14;;;;;;;2.72;1.40;;;19.40;63.40;;;;;;5029820;28;20101;-56
2024/01/04 05:27:40;;;;;;;3.17;1.40;;;19.40;63.40;;;;;;5031186;28;20107;-57
2024/01/04 05:30:12;;;;;;;5.47;1.45;;;19.40;63.40;;;;;;5031096;28;20068;-59
2024/01/04 05:32:38;;;;;;;2.25;1.38;;;19.40;63.70;;;;;;5030995;28;20022;-58
2024/01/04 05:35:06;;;;;;;3.20;1.33;;;19.40;63.40;;;;;;5030097;28;20546;-59
2024/01/04 05:37:31;;;;;;;4.18;1.52;;;19.40;63.10;;;;;;5030214;28;20234;-55
2024/01/04 05:39:57;;;;;;;3.08;1.40;;;19.40;63.70;;;;;;5031193;28;20030;-57
2024/01/04 05:42:23;;;;;;;2.15;1.50;;;19.40;63.00;;;;;;5031730;28;20123;-55
2024/01/04 05:44:49;;;;;;;2.63;1.10;;;19.40;63.20;;;;;;5030450;28;20040;-53
2024/01/04 05:47:14;;;;;;;4.32;1.30;;;19.40;63.60;;;;;;5030410;23;20508;-62
2024/01/04 05:49:40;;;;;;;1.58;0.95;;;19.40;63.60;;;;;;5029634;28;20405;-62
2024/01/04 05:52:06;;;;;;;4.00;1.80;;;19.40;63.70;;;;;;5031495;28;20033;-62
2024/01/04 05:54:32;;;;;;;3.58;1.08;;;19.40;63.40;;;;;;5030032;28;20029;-62
2024/01/04 05:56:58;;;;;;;2.38;1.38;;;19.40;63.50;;;;;;5031376;28;20048;-62
2024/01/04 05:59:24;;;;;;;2.70;1.30;;;19.40;63.50;;;;;;5009002;28;20124;-62
2024/01/04 06:01:54;;;;;;;2.67;1.25;;;19.40;63.20;;;;;;5007432;28;20109;-62
2024/01/04 06:04:20;;;;;;;3.15;1.30;;;19.40;63.40;;;;;;5005227;28;20092;-62
2024/01/04 06:06:49;;;;;;;4.38;1.25;;;19.40;63.50;;;;;;5011262;28;20493;-62
2024/01/04 06:09:20;;;;;;;2.15;1.27;;;19.40;63.60;;;;;;5009082;28;20037;-62
2024/01/04 06:11:46;;;;;;;1.90;1.15;;;19.40;63.50;;;;;;5014709;28;20036;-62
2024/01/04 06:14:13;;;;;;;2.78;1.30;;;19.40;63.40;;;;;;5024074;28;20026;-62
2024/01/04 06:16:38;;;;;;;2.38;1.13;;;19.40;63.40;;;;;;5019401;28;20037;-62
2024/01/04 06:19:04;;;;;;;1.88;1.17;;;19.40;63.60;;;;;;5026773;28;20029;-62
2024/01/04 06:21:30;;;;;;;1.80;1.20;;;19.40;63.80;;;;;;5018868;28;20071;-62
2024/01/04 06:23:59;;;;;;;3.50;1.25;;;19.40;63.60;;;;;;5024503;28;20049;-62
2024/01/04 06:26:25;;;;;;;2.33;1.45;;;19.40;63.60;;;;;;5019565;28;20064;-62
2024/01/04 06:28:50;;;;;;;3.50;1.45;;;19.40;63.60;;;;;;5016479;28;20029;-62
2024/01/04 06:31:16;;;;;;;2.00;1.23;;;19.40;63.70;;;;;;5009760;28;20471;-62
2024/01/04 06:33:42;;;;;;;2.47;1.50;;;19.40;63.50;;;;;;5011468;28;20022;-62
2024/01/04 06:36:08;;;;;;;2.42;1.40;;;19.40;63.40;;;;;;5015290;28;20026;-62
2024/01/04 06:38:37;;;;;;;3.75;1.08;;;19.40;63.40;;;;;;5019133;28;20033;-62
2024/01/04 06:41:03;;;;;;;4.22;1.67;;;19.40;63.30;;;;;;5022932;28;20030;-61
2024/01/04 06:43:30;;;;;;;2.28;1.40;;;19.40;63.50;;;;;;5009641;28;20521;-61
2024/01/04 06:45:59;;;;;;;5.72;1.83;;;19.50;63.80;;;;;;5011533;28;20044;-61
2024/01/04 06:48:25;;;;;;;3.08;1.48;;;19.50;63.40;;;;;;5016076;28;20025;-61
2024/01/04 06:50:51;;;;;;;10.65;1.55;;;19.50;63.40;;;;;;5026268;28;20029;-60
2024/01/04 06:53:17;;;;;;;7.15;1.52;;;19.50;63.20;;;;;;5024915;28;20612;-60
2024/01/04 06:55:43;;;;;;;9.02;1.70;;;19.50;63.30;;;;;;5023035;28;20405;-61
2024/01/04 06:58:09;;;;;;;6.90;1.45;;;19.50;63.80;;;;;;5020354;28;20022;-59
2024/01/04 07:00:36;;;;;;;3.60;1.50;;;19.50;63.20;;;;;;5020310;28;20045;-59
2024/01/04 07:03:03;;;;;;;10.60;1.50;;;19.50;63.90;;;;;;5026161;28;20513;-59
2024/01/04 07:05:28;;;;;;;8.23;1.60;;;19.50;63.20;;;;;;5017099;28;20018;-58
2024/01/04 07:07:55;;;;;;;10.98;1.70;;;19.50;63.30;;;;;;5026531;28;20398;-57
2024/01/04 07:10:21;;;;;;;4.90;1.85;;;19.50;63.30;;;;;;5024452;28;20451;-60
2024/01/04 07:12:47;;;;;;;2.58;1.48;;;19.50;63.40;;;;;;5000777;28;20034;-61
2024/01/04 07:15:13;;;;;;;8.73;1.65;;;19.50;63.20;;;;;;5008784;28;20053;-59
2024/01/04 07:17:40;;;;;;;16.25;2.80;;;19.50;63.50;;;;;;5020953;28;20025;-61
2024/01/04 07:20:06;;;;;;;14.45;2.40;;;19.60;63.20;;;;;;5019440;28;20034;-60
2024/01/04 07:22:33;;;;;;;7.82;1.60;;;19.60;63.30;;;;;;5032284;28;20040;-61
2024/01/04 07:24:59;;;;;;;3.70;1.73;;;19.60;63.80;;;;;;5018089;28;20092;-61
2024/01/04 07:27:27;;;;;;;10.15;1.92;;;19.60;63.80;;;;;;5017915;28;20089;-62
2024/01/04 07:29:54;;;;;;;9.82;2.22;;;19.60;63.30;;;;;;5024921;28;20032;-62
2024/01/04 07:32:21;;;;;;;8.65;1.90;;;19.60;63.20;;;;;;5017467;28;20101;-61
2024/01/04 07:34:47;;;;;;;4.25;1.73;;;19.50;63.70;;;;;;5020667;28;20400;-61
2024/01/04 07:37:13;;;;;;;10.25;2.10;;;19.50;63.80;;;;;;5011114;28;20097;-61
2024/01/04 07:39:40;;;;;;;4.35;1.70;;;19.50;64.10;;;;;;5010666;28;20489;-62
2024/01/04 07:42:06;;;;;;;6.85;1.65;;;19.40;63.40;;;;;;5011194;28;20033;-61
2024/01/04 07:44:32;;;;;;;6.82;1.70;;;19.40;63.60;;;;;;5012140;28;20033;-59
2024/01/04 07:46:58;;;;;;;4.35;1.65;;;19.40;63.70;;;;;;5012323;28;20092;-60
2024/01/04 07:49:24;;;;;;;4.82;1.77;;;19.40;64.20;;;;;;5009897;28;20038;-61
2024/01/04 07:51:51;;;;;;;11.43;2.00;;;19.40;63.00;;;;;;5010054;28;20099;-62
2024/01/04 07:54:17;;;;;;;6.70;1.90;;;19.40;63.90;;;;;;5034179;28;20477;-61
2024/01/04 07:56:43;;;;;;;5.20;2.00;;;19.40;63.00;;;;;;5034076;28;20495;-62
2024/01/04 07:59:09;;;;;;;11.88;1.98;;;19.40;63.10;;;;;;5027830;28;20105;-61
2024/01/04 08:01:35;;;;;;;10.27;2.60;;;19.50;65.00;;;;;;5012776;28;20485;-62
2024/01/04 08:04:00;;;;;;;9.10;2.00;;;19.50;66.10;;;;;;5009849;28;20030;-61
2024/01/04 08:06:26;;;;;;;4.50;1.35;;;19.50;62.00;;;;;;5032143;28;20029;-61
2024/01/04 08:08:52;;;;;;;10.15;1.40;;;19.30;56.80;;;;;;5033539;28;20041;-61
2024/01/04 08:11:19;;;;;;;4.03;1.50;;;19.10;55.60;;;;;;5033656;28;20059;-61
2024/01/04 08:13:45;;;;;;;2.88;1.52;;;19.00;54.40;;;;;;5022760;28;20022;-60
2024/01/04 08:16:11;;;;;;;8.02;1.80;;;18.90;53.60;;;;;;5003319;28;20032;-61
2024/01/04 08:18:37;;;;;;;8.90;1.77;;;19.00;53.90;;;;;;5006978;28;20105;-56
2024/01/04 08:21:03;;;;;;;3.95;1.60;;;19.00;54.20;;;;;;5005731;28;20034;-55
2024/01/04 08:23:30;;;;;;;10.25;1.65;;;19.10;54.60;;;;;;5013330;28;20508;-60
2024/01/04 08:25:56;;;;;;;12.27;2.05;;;19.10;57.00;;;;;;5010838;28;20069;-59
2024/01/04 08:28:22;;;;;;;7.03;1.65;;;19.20;56.40;;;;;;5013088;28;20069;-61
2024/01/04 08:30:48;;;;;;;9.30;1.80;;;19.20;56.90;;;;;;5013239;28;20021;-61
2024/01/04 08:33:14;;;;;;;2.55;1.70;;;19.30;57.50;;;;;;5006514;28;20022;-60
2024/01/04 08:35:40;;;;;;;24.80;1.95;;;19.30;58.40;;;;;;5012773;28;20030;-59
2024/01/04 18:22:35;;;;;;;5.20;2.92;;;19.00;55.70;;;;;;5141052;27;20386;-60
2024/01/04 18:25:04;;;;;;;9.45;3.40;;;19.10;55.30;;;;;;5133487;27;20103;-59
2024/01/04 18:27:31;;;;;;;5.70;3.22;;;19.10;55.40;;;;;;5149658;27;20019;-60
2024/01/04 18:29:57;;;;;;;4.93;3.00;;;19.10;55.00;;;;;;5141401;27;20034;-58
2024/01/04 18:32:23;;;;;;;7.18;3.05;;;19.10;55.20;;;;;;5129535;22;20566;-52
2024/01/04 18:34:49;;;;;;;11.07;3.22;;;19.10;55.00;;;;;;5108470;28;20081;-55
2024/01/04 18:37:15;;;;;;;6.20;3.05;;;19.20;56.40;;;;;;5107564;28;20294;-54
2024/01/04 18:39:41;;;;;;;4.85;2.97;;;19.20;55.90;;;;;;5103344;28;20031;-51
2024/01/04 18:42:06;;;;;;;12.77;3.20;;;19.20;56.30;;;;;;5096982;28;20075;-51
2024/01/04 18:44:32;;;;;;;14.02;3.08;;;19.20;56.40;;;;;;5088216;28;20414;-50
2024/01/04 18:47:00;;;;;;;7.03;3.28;;;19.20;56.20;;;;;;5093685;28;20032;-50
2024/01/04 18:49:27;;;;;;;7.05;3.08;;;19.30;57.10;;;;;;5105118;28;20023;-52
2024/01/04 18:51:53;;;;;;;6.00;2.90;;;19.30;57.50;;;;;;5105040;28;20040;-52
2024/01/04 18:54:19;;;;;;;4.80;2.83;;;19.30;57.60;;;;;;5100223;28;20041;-56
2024/01/04 18:56:45;;;;;;;8.10;2.88;;;19.40;57.80;;;;;;5090324;28;20024;-53
2024/01/04 18:59:15;;;;;;;7.38;2.95;;;19.40;57.70;;;;;;5105746;28;20099;-55
2024/01/04 19:01:40;;;;;;;6.50;3.00;;;19.40;57.50;;;;;;5106313;28;20031;-53
2024/01/04 19:04:06;;;;;;;6.28;2.80;;;19.50;57.30;;;;;;5101073;28;20032;-56
2024/01/04 19:06:33;;;;;;;5.50;2.72;;;19.50;57.20;;;;;;5099295;28;20032;-56
2024/01/04 19:08:59;;;;;;;7.43;2.72;;;19.50;57.30;;;;;;5087971;28;20111;-51
2024/01/04 19:11:25;;;;;;;6.68;2.80;;;19.50;57.30;;;;;;5103850;28;20020;-57
2024/01/04 19:13:53;;;;;;;7.05;3.15;;;19.50;57.40;;;;;;5108195;28;20031;-56
2024/01/04 19:16:21;;;;;;;7.20;2.55;;;19.50;57.30;;;;;;5107964;28;20028;-54
2024/01/04 19:18:48;;;;;;;6.05;3.00;;;19.50;57.30;;;;;;5108210;28;20359;-58
2024/01/04 19:21:14;;;;;;;8.85;2.67;;;19.50;57.30;;;;;;5107723;28;20032;-57
2024/01/04 19:23:40;;;;;;;5.80;2.90;;;19.50;57.20;;;;;;5075538;28;20086;-55
2024/01/04 19:26:09;;;;;;;5.05;2.70;;;19.50;57.10;;;;;;5074111;28;20033;-56
2024/01/04 19:28:39;;;;;;;7.22;2.70;;;19.50;57.10;;;;;;5090473;28;20020;-57
2024/01/04 19:31:18;;;;;;;9.18;2.85;;;19.50;56.90;;;;;;5093717;28;20028;-56
2024/01/04 19:33:43;;;;;;;5.72;2.55;;;19.60;57.10;;;;;;5094138;28;20024;-54
2024/01/04 19:36:09;;;;;;;4.72;2.50;;;19.50;57.10;;;;;;5094563;28;20028;-56
2024/01/04 19:38:35;;;;;;;6.47;2.92;;;19.50;57.10;;;;;;5094146;28;20028;-55
2024/01/04 19:41:01;;;;;;;4.85;2.88;;;19.50;57.10;;;;;;5093646;28;20036;-55
2024/01/04 19:43:28;;;;;;;6.47;3.00;;;19.50;57.10;;;;;;5091806;28;20394;-57
2024/01/04 19:45:53;;;;;;;4.82;2.70;;;19.50;57.20;;;;;;5085996;28;20043;-59
2024/01/04 19:48:19;;;;;;;4.57;2.67;;;19.50;57.20;;;;;;5083243;28;20020;-52
2024/01/04 19:50:45;;;;;;;6.68;2.78;;;19.50;57.10;;;;;;5082391;28;20047;-53
2024/01/04 19:53:11;;;;;;;8.07;2.95;;;19.50;57.10;;;;;;5077580;28;20229;-53
2024/01/04 19:55:36;;;;;;;4.53;2.50;;;19.50;57.30;;;;;;5073965;28;20119;-56
2024/01/04 19:58:03;;;;;;;6.53;2.70;;;19.50;57.40;;;;;;5076021;28;20111;-54
2024/01/04 20:00:29;;;;;;;4.43;2.80;;;19.50;57.40;;;;;;5082133;28;20036;-58
2024/01/04 20:02:54;;;;;;;5.07;3.13;;;19.50;57.50;;;;;;5074354;28;20069;-54
2024/01/04 20:05:20;;;;;;;6.82;2.67;;;19.50;57.60;;;;;;5078942;28;20058;-57
2024/01/04 20:07:46;;;;;;;6.10;2.63;;;19.50;57.50;;;;;;5075514;28;20036;-60
2024/01/04 20:10:12;;;;;;;5.70;2.85;;;19.50;57.60;;;;;;5084843;28;20039;-54
2024/01/04 20:12:46;;;;;;;4.25;2.55;;;19.50;57.70;;;;;;5075590;28;20021;-56
2024/01/04 20:15:12;;;;;;;6.50;2.78;;;19.60;58.10;;;;;;5076836;28;20044;-58
2024/01/04 20:17:52;;;;;;;6.07;3.05;;;19.60;58.50;;;;;;5093422;28;20020;-56
2024/01/04 20:20:19;;;;;;;7.63;3.05;;;19.60;59.00;;;;;;5070514;28;20399;-56
2024/01/04 20:22:45;;;;;;;4.82;2.47;;;19.60;59.50;;;;;;5069803;28;20029;-60
2024/01/04 20:25:11;;;;;;;5.30;2.67;;;19.60;59.40;;;;;;5085373;28;20035;-54
2024/01/04 20:27:41;;;;;;;4.15;2.20;;;19.60;58.90;;;;;;5089905;28;20024;-59
2024/01/04 20:30:09;;;;;;;5.55;2.70;;;19.60;58.80;;;;;;5090746;28;20394;-58
2024/01/04 20:32:38;;;;;;;5.07;2.90;;;19.60;58.70;;;;;;5086351;28;20031;-58
2024/01/04 20:35:04;;;;;;;5.30;2.70;;;19.60;58.70;;;;;;5079178;28;20024;-56
2024/01/04 20:37:30;;;;;;;4.65;2.42;;;19.60;58.70;;;;;;5073612;28;20032;-57
2024/01/04 20:39:56;;;;;;;5.38;2.58;;;19.60;58.70;;;;;;5080454;28;20511;-53
2024/01/04 20:42:22;;;;;;;5.68;2.80;;;19.60;58.40;;;;;;5073879;28;20031;-61
2024/01/04 20:44:48;;;;;;;4.45;2.47;;;19.60;58.50;;;;;;5089784;28;20025;-58
2024/01/04 20:47:14;;;;;;;5.97;2.72;;;19.60;58.50;;;;;;5089683;28;20031;-56
2024/01/04 20:49:47;;;;;;;5.10;2.47;;;19.60;58.60;;;;;;5090016;28;20061;-52
2024/01/04 20:52:13;;;;;;;4.93;2.75;;;19.60;58.60;;;;;;5087730;28;20418;-59
2024/01/04 20:54:39;;;;;;;7.47;2.63;;;19.60;58.60;;;;;;5083513;28;20020;-53
2024/01/04 20:57:05;;;;;;;6.57;2.72;;;19.50;58.60;;;;;;5073225;28;20033;-54
2024/01/04 20:59:31;;;;;;;4.95;2.78;;;19.50;58.60;;;;;;5084209;28;20026;-58
2024/01/04 21:01:57;;;;;;;5.68;2.40;;;19.50;58.60;;;;;;5071278;28;20016;-51
2024/01/04 21:04:22;;;;;;;5.38;2.42;;;19.50;58.60;;;;;;5074399;28;20020;-55
2024/01/04 21:06:48;;;;;;;5.90;2.63;;;19.50;58.60;;;;;;5071867;28;20020;-54
2024/01/04 21:09:18;;;;;;;9.85;2.38;;;19.50;59.10;;;;;;5077178;28;20047;-52
2024/01/04 21:11:51;;;;;;;4.93;2.55;;;19.50;58.50;;;;;;5091538;28;20035;-53
2024/01/04 21:14:26;;;;;;;7.45;2.88;;;19.50;58.50;;;;;;5076171;28;20016;-52
2024/01/04 21:16:52;;;;;;;5.32;2.92;;;19.50;58.50;;;;;;5072758;28;20052;-53
2024/01/04 21:19:18;;;;;;;6.90;2.60;;;19.50;58.30;;;;;;5072070;28;20491;-55
2024/01/04 21:21:44;;;;;;;4.60;2.92;;;19.50;58.30;;;;;;5071377;28;20035;-55
2024/01/04 21:24:10;;;;;;;5.32;2.70;;;19.50;58.30;;;;;;5071854;28;20032;-54
2024/01/04 21:26:36;;;;;;;5.05;2.63;;;19.50;58.10;;;;;;5079850;28;20027;-50
2024/01/04 21:29:03;;;;;;;3.83;2.30;;;19.40;58.00;;;;;;5092133;28;20031;-51
2024/01/04 21:31:29;;;;;;;4.30;2.45;;;19.50;58.00;;;;;;5091357;28;20048;-48
2024/01/04 21:33:55;;;;;;;5.28;2.53;;;19.40;57.80;;;;;;5091862;28;20063;-48
2024/01/04 21:36:21;;;;;;;4.72;2.60;;;19.40;57.80;;;;;;5091948;28;20028;-51
2024/01/04 21:38:48;;;;;;;4.82;2.70;;;19.40;57.70;;;;;;5091834;28;20104;-54
2024/01/04 21:41:14;;;;;;;3.80;2.58;;;19.40;57.70;;;;;;5091482;28;20024;-54
2024/01/04 21:43:40;;;;;;;4.68;2.40;;;19.40;57.60;;;;;;5091599;28;20430;-51
2024/01/04 21:46:06;;;;;;;4.15;2.60;;;19.40;57.60;;;;;;5091589;28;20107;-54
2024/01/04 21:48:32;;;;;;;4.43;2.65;;;19.40;57.50;;;;;;5090552;28;20036;-50
2024/01/04 21:50:58;;;;;;;4.57;2.53;;;19.40;57.50;;;;;;5091224;28;20032;-53
2024/01/04 21:53:24;;;;;;;3.92;2.33;;;19.40;57.50;;;;;;5084380;28;20047;-57
2024/01/04 21:55:50;;;;;;;5.90;2.50;;;19.40;58.00;;;;;;5070328;28;20372;-56
2024/01/04 21:58:16;;;;;;;4.00;2.55;;;19.40;57.40;;;;;;5071453;28;20094;-54
2024/01/04 22:01:01;;;;;;;5.13;2.40;;;19.40;57.40;;;;;;5082202;28;20044;-53
2024/01/04 22:03:27;;;;;;;5.28;2.90;;;19.40;57.30;;;;;;5091628;28;20436;-55
2024/01/04 22:05:53;;;;;;;3.80;2.30;;;19.40;57.30;;;;;;5091485;28;20486;-54
2024/01/04 22:08:18;;;;;;;5.55;2.50;;;19.40;57.40;;;;;;5076882;28;20055;-54
2024/01/04 22:10:44;;;;;;;5.18;2.80;;;19.40;57.40;;;;;;5072510;28;20027;-56
2024/01/04 22:13:10;;;;;;;4.10;2.53;;;19.40;57.40;;;;;;5083908;28;20035;-57
2024/01/04 22:15:36;;;;;;;4.88;2.60;;;19.40;57.40;;;;;;5080551;28;20030;-49
2024/01/04 22:18:04;;;;;;;4.10;2.75;;;19.40;57.50;;;;;;5079901;28;20032;-58
2024/01/04 22:20:30;;;;;;;4.35;2.60;;;19.40;57.50;;;;;;5074547;28;20028;-57
2024/01/04 22:22:56;;;;;;;4.55;2.45;;;19.50;57.20;;;;;;5075388;28;20107;-56
2024/01/04 22:25:22;;;;;;;4.72;2.60;;;19.50;57.50;;;;;;5071096;28;20088;-53
2024/01/04 22:27:59;;;;;;;4.80;2.78;;;19.50;57.60;;;;;;5083216;28;20046;-52
2024/01/04 22:30:25;;;;;;;4.68;2.65;;;19.40;57.40;;;;;;5091351;28;20036;-54
2024/01/04 22:32:50;;;;;;;3.30;2.42;;;19.50;57.50;;;;;;5090518;28;20115;-53